Latest Weather Observations for Cleve Airport

IDS60801

Issued at 10:05 pm CDT Monday 20 October 2014 (issued every 30 minutes, with the page automatically refreshed every 10 minutes)

About weather observations | Map of weather stations | Latest weather observations for SA | Other Formats
Station Details ID: 018116 Name: CLEVE AERODROME Lat: -33.71 Lon: 136.50 Height: 175.0 m
Data from the previous 72 hours. | See also: Recent months at Cleve Airport
Date/Time
CDT
Temp
°C
App
Temp
°C
Dew
Point
Rel
Hum
%
Delta-T
°C
Wind Press
QNH
hPa
Press
MSL
hPa
Rain
since 9 am
mm
Dir
 
Spd
km/h
Gust
km/h
Spd
kts
Gust
kts
20/10:00pm 22.1 17.4 3.3 29 9.1 NE 17 19 9 10 1019.4 - 0.0
20/09:30pm 22.8 18.7 2.3 26 9.7 ENE 13 17 7 9 1019.4 - 0.0
20/09:00pm 20.2 16.1 4.3 35 7.7 NE 15 17 8 9 1019.3 1019.0 0.0
20/08:30pm 17.9 15.8 8.2 53 5.0 NE 9 11 5 6 1019.1 - 0.0
20/08:00pm 19.2 16.9 7.6 47 6.0 E 9 13 5 7 1018.9 - 0.0
20/07:30pm 22.1 20.2 8.9 43 7.1 ESE 9 13 5 7 1018.5 - 0.0
20/07:00pm 24.1 20.6 8.9 38 8.2 SE 17 20 9 11 1018.0 - 0.0
20/06:30pm 26.5 22.4 8.0 31 10.0 SE 19 22 10 12 1017.8 - 0.0
20/06:00pm 28.2 23.7 6.9 26 11.4 SE 20 26 11 14 1017.7 1017.5 0.0
20/05:30pm 29.1 23.4 6.5 24 12.1 SE 26 32 14 17 1017.8 - 0.0
20/05:00pm 30.8 25.3 6.0 21 13.3 SE 24 32 13 17 1017.8 - 0.0
20/04:30pm 30.9 25.2 6.7 22 13.1 SE 26 35 14 19 1017.8 - 0.0
20/04:00pm 31.4 25.3 6.5 21 13.5 SE 28 37 15 20 1018.0 - 0.0
20/03:30pm 30.4 23.6 7.0 23 12.7 SSE 32 41 17 22 1018.1 - 0.0
20/03:00pm 31.4 25.0 7.1 22 13.3 SE 30 37 16 20 1018.6 1018.3 0.0
20/02:30pm 31.3 25.2 8.3 24 12.8 SE 30 37 16 20 1018.9 - 0.0
20/02:00pm 30.5 25.5 9.4 27 11.9 SSE 26 33 14 18 1019.5 - 0.0
20/01:30pm 29.2 24.8 10.3 31 10.8 SSE 24 33 13 18 1020.0 - 0.0
20/01:00pm 27.8 22.7 10.5 34 9.8 SSE 28 39 15 21 1020.4 - 0.0
20/12:30pm 27.6 22.6 10.8 35 9.6 SSE 28 32 15 17 1020.8 - 0.0
20/12:00pm 27.1 23.2 10.7 35 9.3 SSE 22 33 12 18 1021.2 1021.0 0.0
20/11:30am 27.7 22.7 9.5 32 10.2 SSE 26 35 14 19 1021.4 - 0.0
20/11:00am 27.8 22.8 8.1 29 10.8 SSE 24 30 13 16 1021.7 - 0.0
20/10:30am 26.2 22.6 8.2 32 9.8 ESE 17 24 9 13 1022.1 - 0.0
20/10:00am 24.8 20.8 8.3 35 8.9 E 19 26 10 14 1022.2 - 0.0
20/09:30am 22.6 18.8 9.0 42 7.3 ESE 19 28 10 15 1022.2 - 0.0
20/09:00am 20.1 15.8 9.4 50 5.7 E 22 28 12 15 1022.2 1022.0 0.0
20/08:30am 17.4 13.7 10.1 62 3.9 E 20 24 11 13 1022.3 - 0.0
20/08:00am 15.6 13.2 11.4 76 2.3 E 15 20 8 11 1022.0 - 0.0
20/07:30am 12.8 11.3 10.5 86 1.2 ENE 9 11 5 6 1021.9 - 0.0
20/07:00am 11.1 8.1 9.4 89 0.9 E 15 17 8 9 1021.7 - 0.0
20/06:30am 11.2 7.6 9.8 91 0.7 E 19 20 10 11 1021.6 - 0.0
20/06:00am 10.4 6.6 9.2 92 0.6 E 19 20 10 11 1021.5 1021.3 0.0
20/05:30am 10.3 7.9 8.7 90 0.8 ENE 11 15 6 8 1021.4 - 0.0
20/05:00am 11.1 7.8 9.5 90 0.8 E 17 19 9 10 1021.3 - 0.0
20/04:30am 11.9 9.3 10.6 92 0.7 E 15 17 8 9 1021.1 - 0.0
20/04:00am 10.8 8.3 9.6 92 0.6 ENE 13 15 7 8 1021.1 - 0.0
20/03:30am 11.1 8.3 9.9 92 0.6 NE 15 15 8 8 1021.4 - 0.0
20/03:00am 10.9 8.3 9.3 90 0.8 E 13 15 7 8 1021.6 1021.4 0.0
20/02:30am 12.0 10.0 10.2 89 0.9 ENE 11 13 6 7 1021.8 - 0.0
20/02:00am 12.0 9.3 10.4 90 0.8 E 15 17 8 9 1021.8 - 0.0
20/01:30am 12.2 9.5 10.4 89 0.9 E 15 17 8 9 1022.1 - 0.0
20/01:00am 12.7 10.1 10.8 88 1.0 E 15 17 8 9 1022.2 - 0.0
20/12:30am 12.9 10.7 10.8 87 1.1 E 13 17 7 9 1022.3 - 0.0
20/12:00am 12.6 10.0 10.8 89 0.9 E 15 17 8 9 1022.4 1022.2 0.0
 
Date/Time
CDT
Temp
°C
App
Temp
°C
Dew
Point
Rel
Hum
%
Delta-T
°C
Wind Press
QNH
hPa
Press
MSL
hPa
Rain
since 9 am
mm
Dir
 
Spd
km/h
Gust
km/h
Spd
kts
Gust
kts
19/11:30pm 12.9 10.4 11.1 89 1.0 E 15 17 8 9 1022.6 - 0.0
19/11:00pm 13.1 10.6 11.2 88 1.0 E 15 17 8 9 1022.6 - 0.0
19/10:30pm 13.4 11.3 11.1 86 1.2 E 13 15 7 8 1022.8 - 0.0
19/10:00pm 14.3 12.0 11.8 85 1.4 ESE 15 19 8 10 1022.8 - 0.0
19/09:30pm 14.9 11.9 12.0 83 1.6 ESE 19 24 10 13 1022.6 - 0.0
19/09:00pm 15.4 13.0 12.5 83 1.6 ESE 17 22 9 12 1022.3 1022.1 0.0
19/08:30pm 16.1 13.3 12.7 80 1.9 ESE 19 22 10 12 1022.0 - 0.0
19/08:00pm 16.7 13.8 12.8 78 2.2 ESE 20 26 11 14 1021.9 - 0.0
19/07:30pm 17.6 14.3 12.7 73 2.8 ESE 22 30 12 16 1021.7 - 0.0
19/07:00pm 19.1 14.8 12.1 64 3.9 SE 26 35 14 19 1021.0 - 0.0
19/06:30pm 22.4 16.6 6.2 35 8.3 SE 26 37 14 20 1020.5 - 0.0
19/06:00pm 25.3 18.4 0.0 19 11.7 SE 26 35 14 19 1020.2 1020.0 0.0
19/05:30pm 26.2 19.2 -0.8 17 12.5 SSE 26 32 14 17 1020.0 - 0.0
19/05:00pm 26.9 19.3 -1.9 15 13.1 SE 28 35 15 19 1019.7 - 0.0
19/04:30pm 27.4 20.0 -3.4 13 13.7 SE 26 35 14 19 1019.5 - 0.0
19/04:00pm 28.3 21.5 -1.7 14 13.8 ESE 24 33 13 18 1019.7 - 0.0
19/03:30pm 28.1 21.8 -0.9 15 13.6 ESE 22 32 12 17 1019.7 - 0.0
19/03:00pm 28.1 20.9 -1.9 14 13.7 ESE 26 33 14 18 1019.9 1019.6 0.0
19/02:30pm 28.1 20.7 -0.9 15 13.6 SE 28 37 15 20 1020.0 - 0.0
19/02:00pm 28.5 21.4 1.1 17 13.3 SE 28 35 15 19 1019.9 - 0.0
19/01:30pm 29.3 22.6 1.7 17 13.6 SSE 26 35 14 19 1019.7 - 0.0
19/01:00pm 33.2 27.1 -7.2 7 17.6 NW 17 28 9 15 1019.3 - 0.0
19/12:30pm 31.9 24.8 -8.1 7 17.0 NW 22 35 12 19 1019.4 - 0.0
19/12:00pm 31.4 23.1 -8.5 7 16.7 NNW 28 37 15 20 1019.8 1019.5 0.0
19/11:30am 31.5 23.3 -8.4 7 16.8 NW 28 41 15 22 1019.6 - 0.0
19/11:00am 31.4 22.4 -8.5 7 16.8 NNW 32 46 17 25 1019.8 - 0.0
19/10:30am 30.4 21.3 -7.5 8 16.1 N 33 48 18 26 1019.6 - 0.0
19/10:00am 29.7 19.8 -8.0 8 15.7 N 37 54 20 29 1019.6 - 0.0
19/09:36am 29.3 20.8 -6.8 9 15.3 N 30 48 16 26 1019.5 - 0.0
19/09:30am 29.7 20.9 -6.5 9 15.5 N 32 44 17 24 1019.6 - 0.0
19/09:00am 26.7 17.7 -6.2 11 13.8 N 33 46 18 25 1019.4 1019.1 0.0
19/08:30am 25.2 16.5 -5.1 13 12.8 N 32 48 17 26 1019.2 - 0.0
19/08:00am 23.9 15.6 -5.2 14 12.1 N 30 44 16 24 1019.1 - 0.0
19/07:30am 22.5 14.2 -5.4 15 11.4 N 30 39 16 21 1018.8 - 0.0
19/07:00am 21.5 13.1 -6.2 15 11.1 N 30 39 16 21 1018.4 - 0.0
19/06:30am 21.3 12.9 -6.3 15 11.0 N 30 39 16 21 1018.0 - 0.0
19/06:00am 21.3 13.6 -6.3 15 11.0 N 26 35 14 19 1017.6 1017.4 0.0
19/05:30am 21.0 13.4 -5.7 16 10.7 N 26 33 14 18 1017.4 - 0.0
19/05:00am 21.7 14.8 -6.0 15 11.1 N 22 35 12 19 1017.2 - 0.0
19/04:30am 22.6 15.3 -6.2 14 11.6 N 24 32 13 17 1017.0 - 0.0
19/04:00am 22.9 15.5 -6.9 13 11.9 N 24 32 13 17 1017.2 - 0.0
19/03:30am 22.9 15.2 -6.9 13 11.9 N 26 32 14 17 1017.2 - 0.0
19/03:00am 23.3 15.5 -7.7 12 12.2 N 26 35 14 19 1017.3 1017.1 0.0
19/02:30am 24.2 16.3 -9.3 10 13.0 N 26 33 14 18 1017.7 - 0.0
19/02:00am 24.1 16.5 -9.4 10 12.9 N 24 33 13 18 1017.8 - 0.0
19/01:30am 24.3 16.7 -9.2 10 13.0 N 24 32 13 17 1018.0 - 0.0
19/01:00am 23.6 16.8 -9.8 10 12.7 N 20 28 11 15 1018.1 - 0.0
19/12:30am 22.8 16.0 -9.2 11 12.2 NNW 20 24 11 13 1018.5 - 0.0
19/12:00am 23.4 16.8 -8.7 11 12.4 NNW 19 26 10 14 1018.6 1018.3 0.0
 
Date/Time
CDT
Temp
°C
App
Temp
°C
Dew
Point
Rel
Hum
%
Delta-T
°C
Wind Press
QNH
hPa
Press
MSL
hPa
Rain
since 9 am
mm
Dir
 
Spd
km/h
Gust
km/h
Spd
kts
Gust
kts
18/11:30pm 24.2 17.4 -9.3 10 13.0 N 20 28 11 15 1018.8 - 0.0
18/11:00pm 23.7 17.1 -9.7 10 12.8 NNW 19 24 10 13 1018.8 - 0.0
18/10:30pm 24.4 17.6 -9.1 10 13.0 N 20 24 11 13 1019.1 - 0.0
18/10:00pm 25.0 18.3 -10.0 9 13.5 N 19 24 10 13 1019.2 - 0.0
18/09:30pm 25.4 18.6 -9.7 9 13.6 N 20 26 11 14 1019.1 - 0.0
18/09:00pm 25.5 18.8 -8.3 10 13.5 N 20 26 11 14 1019.0 1018.7 0.0
18/08:30pm 25.6 19.8 -8.2 10 13.5 NNW 15 22 8 12 1018.6 - 0.0
18/08:00pm 27.0 20.5 -8.5 9 14.3 N 19 24 10 13 1018.2 - 0.0
18/07:30pm 27.8 22.1 -7.9 9 14.7 N 15 19 8 10 1018.0 - 0.0
18/07:00pm 29.9 24.5 -7.9 8 15.8 N 13 17 7 9 1017.8 - 0.0
18/06:30pm 30.6 24.4 -9.1 7 16.4 N 17 20 9 11 1017.8 - 0.0
18/06:00pm 30.8 24.6 -8.9 7 16.5 N 17 22 9 12 1017.6 1017.4 0.0
18/05:30pm 30.8 25.4 -8.9 7 16.5 NNW 13 22 7 12 1017.6 - 0.0
18/05:00pm 31.1 24.9 -8.7 7 16.6 NNW 17 28 9 15 1017.6 - 0.0
18/04:30pm 31.8 25.7 -8.2 7 17.0 NNW 17 26 9 14 1017.6 - 0.0
18/04:00pm 31.7 25.0 -8.3 7 16.9 NNW 20 32 11 17 1017.7 - 0.0
18/03:30pm 33.0 25.6 -7.3 7 17.5 NW 24 35 13 19 1018.0 - 0.0
18/03:00pm 31.8 23.6 -8.2 7 16.9 WNW 28 39 15 21 1018.4 1018.1 0.0
18/02:30pm 33.1 26.1 -7.3 7 17.6 NNW 22 39 12 21 1018.6 - 0.0
18/02:06pm 32.8 24.6 -7.5 7 17.4 NW 28 46 15 25 1019.0 - 0.0
18/02:00pm 31.9 23.1 -6.4 8 16.8 NNW 32 46 17 25 1019.2 - 0.0
18/01:30pm 31.6 22.6 -6.6 8 16.6 NNW 33 50 18 27 1019.2 - 0.0
18/01:20pm 30.8 22.3 -7.2 8 16.3 NNW 30 48 16 26 1019.3 - 0.0
18/01:00pm 31.7 23.6 -6.6 8 16.7 NNW 28 39 15 21 1019.5 - 0.0
18/12:30pm 30.4 21.3 -7.5 8 16.1 NNW 33 52 18 28 1019.5 - 0.0
18/12:00pm 29.4 20.5 -6.7 9 15.3 NNW 32 50 17 27 1019.6 1019.3 0.0
18/11:30am 29.2 19.4 -6.9 9 15.3 NNW 37 56 20 30 1019.6 - 0.0
18/11:22am 29.5 20.5 -6.7 9 15.4 NNW 33 54 18 29 1019.8 - 0.0
18/11:00am 28.1 17.8 -7.7 9 14.8 NNW 39 50 21 27 1020.1 - 0.0
18/10:46am 28.7 19.8 -7.3 9 15.1 NNW 32 50 17 27 1020.0 - 0.0
18/10:30am 27.9 18.7 -7.9 9 14.7 NNW 33 48 18 26 1020.1 - 0.0
18/10:12am 27.4 18.4 -8.2 9 14.5 NNW 32 52 17 28 1020.2 - 0.0
18/10:00am 27.8 18.6 -7.9 9 14.7 NNW 33 50 18 27 1020.2 - 0.0
18/09:30am 27.1 17.6 -7.1 10 14.2 N 35 56 19 30 1020.1 - 0.0
18/09:00am 24.3 14.2 -5.8 13 12.4 N 39 57 21 31 1019.9 1019.6 0.0
18/08:37am 24.2 14.1 -5.9 13 12.4 N 39 57 21 31 1019.6 - 0.0
18/08:30am 23.8 14.0 -6.2 13 12.3 N 37 54 20 29 1019.7 - 0.0
18/08:26am 23.5 14.1 -6.5 13 12.2 N 35 54 19 29 1019.7 - 0.0
18/08:00am 22.3 12.5 -6.5 14 11.5 N 37 50 20 27 1019.7 - 0.0
18/07:30am 21.2 12.2 -6.4 15 10.9 N 33 44 18 24 1019.3 - 0.0
18/07:01am 20.6 10.9 -6.1 16 10.6 N 37 56 20 30 1018.9 - 0.0
18/07:00am 20.4 10.6 -6.2 16 10.5 N 37 46 20 25 1019.0 - 0.0
18/06:30am 20.4 11.0 -6.2 16 10.5 N 35 50 19 27 1018.7 - 0.0
18/06:00am 20.0 11.0 -5.8 17 10.2 N 33 48 18 26 1018.9 1018.6 0.0
18/05:30am 20.3 11.0 -5.5 17 10.3 N 35 48 19 26 1018.6 - 0.0
18/05:00am 20.7 11.6 -6.8 15 10.8 N 33 44 18 24 1018.4 - 0.0
18/04:30am 20.9 12.3 -7.6 14 11.0 N 30 43 16 23 1018.4 - 0.0
18/04:00am 21.4 12.5 -7.2 14 11.2 N 32 44 17 24 1018.1 - 0.0
18/03:30am 21.7 12.7 -7.9 13 11.5 N 32 44 17 24 1018.2 - 0.0
18/03:00am 21.6 12.7 -7.0 14 11.2 N 32 41 17 22 1018.4 1018.1 0.0
18/02:30am 22.0 13.1 -6.7 14 11.4 N 32 44 17 24 1018.7 - 0.0
18/02:00am 22.5 13.6 -7.3 13 11.8 N 32 44 17 24 1018.9 - 0.0
18/01:30am 22.4 14.0 -6.4 14 11.6 N 30 39 16 21 1019.3 - 0.0
18/01:00am 20.1 12.9 -4.9 18 10.1 NNE 24 30 13 16 1019.5 - 0.0
18/12:30am 20.5 13.8 -4.6 18 10.2 NNE 22 28 12 15 1019.5 - 0.0
18/12:00am 20.3 13.9 -4.8 18 10.2 NNE 20 24 11 13 1019.6 1019.3 0.0
 
Date/Time
CDT
Temp
°C
App
Temp
°C
Dew
Point
Rel
Hum
%
Delta-T
°C
Wind Press
QNH
hPa
Press
MSL
hPa
Rain
since 9 am
mm
Dir
 
Spd
km/h
Gust
km/h
Spd
kts
Gust
kts
17/11:30pm 20.7 14.3 -5.2 17 10.5 NNE 20 24 11 13 1019.8 - 0.0
17/11:00pm 20.8 14.5 -4.4 18 10.4 NNE 20 24 11 13 1020.0 - 0.0
17/10:30pm 21.1 14.9 -3.4 19 10.3 NNE 20 28 11 15 1020.3 - 0.0

Other Formats:

Comma delimited format used in spreadsheet applications
http://www.bom.gov.au/fwo/IDS60801/IDS60801.94662.axf

JavaScript Object Notation format (JSON) in row-major order
http://www.bom.gov.au/fwo/IDS60801/IDS60801.94662.json